Time;durP1;ratioP1;P1;durP2;ratioP2;P2;SDS_P1;SDS_P2;PMS_P1;PMS_P2;Temp;Humidity;BMP_temperature;BMP_pressure;BME280_temperature;BME280_humidity;BME280_pressure;Samples;Min_cycle;Max_cycle;Signal;HPM_P1;HPM_P2
2022/08/09 10:17:11;;;;;;;4.15;2.80;;;27.90;82.80;;;-144.05;31.77;125687.94;4956231;29;20114;-90
2022/08/09 10:19:37;;;;;;;4.50;2.80;;;28.00;80.70;;;-144.05;32.18;125687.94;4940649;29;20031;-86
2022/08/09 10:22:03;;;;;;;4.55;2.15;;;28.00;82.40;;;-144.05;31.80;125687.94;4956071;29;20066;-88
2022/08/09 10:24:30;;;;;;;5.03;2.50;;;28.20;80.70;;;-144.05;31.08;125687.94;4940887;29;20095;-89
2022/08/09 10:26:58;;;;;;;5.88;2.83;;;28.60;78.50;;;-144.05;30.94;125687.94;4940841;29;20129;-89
2022/08/09 10:29:25;;;;;;;5.80;2.03;;;28.40;77.40;;;-144.05;31.33;125687.94;4941059;29;20082;-90
2022/08/09 10:31:52;;;;;;;4.32;2.13;;;28.30;78.50;;;-144.05;30.91;125687.94;4940941;29;20034;-87
2022/08/09 10:34:20;;;;;;;4.38;2.22;;;28.30;76.90;;;-144.05;30.56;125687.94;4940801;29;20110;-88
2022/08/09 10:36:55;;;;;;;4.82;2.28;;;28.40;75.50;;;-144.05;31.43;125687.94;4941356;29;20130;-88
2022/08/09 10:39:24;;;;;;;;;;;28.50;77.50;;;-144.05;30.54;125687.94;4942806;29;20027;-88
2022/08/09 10:41:52;;;;;;;4.00;2.47;;;28.70;75.10;;;-144.05;30.67;125687.94;4942740;29;19961;-86
2022/08/09 10:44:29;;;;;;;6.28;2.35;;;28.80;74.90;;;-144.05;31.13;125687.94;4944658;29;20103;-86
2022/08/09 10:47:12;;;;;;;3.95;2.20;;;28.90;76.30;;;-144.05;30.31;125687.94;4960485;29;20090;-85
2022/08/09 10:49:57;;;;;;;4.32;1.98;;;28.90;73.40;;;-144.05;30.11;125687.94;4943809;29;20063;-87
2022/08/09 10:52:40;;;;;;;5.00;2.08;;;29.10;73.10;;;-144.05;29.50;125687.94;4946291;29;20027;-86
2022/08/09 10:55:29;;;;;;;5.93;2.50;;;29.40;72.40;;;-144.05;29.49;125687.94;4946461;29;20039;-88
2022/08/09 10:57:56;;;;;;;3.65;2.70;;;29.40;70.50;;;-144.05;29.48;125687.94;4945702;29;20119;-86
2022/08/09 11:00:28;;;;;;;4.15;2.13;;;29.30;69.70;;;-144.05;nan;125687.94;4945610;29;20098;-89
2022/08/09 11:02:56;;;;;;;7.72;2.53;;;29.30;70.70;;;-144.05;29.84;125687.94;4944784;29;20034;-87
2022/08/09 11:05:26;;;;;;;6.00;2.53;;;29.60;71.20;;;-144.05;29.88;125687.94;4962723;29;20023;-89
2022/08/09 11:07:52;;;;;;;5.07;2.50;;;29.30;70.30;;;-144.05;29.89;125687.94;4947683;29;20055;-86
2022/08/09 11:10:40;;;;;;;3.47;2.30;;;29.40;70.30;;;-144.05;29.15;125687.94;4948574;29;20049;-87
2022/08/09 11:13:18;;;;;;;3.22;2.13;;;29.40;68.80;;;-144.05;29.12;125687.94;4971832;28;20090;-87
2022/08/09 11:15:45;;;;;;;3.75;2.10;;;29.50;68.80;;;-144.05;29.06;125687.94;4967370;28;20205;-87
2022/08/09 11:18:44;;;;;;;6.72;2.47;;;29.80;67.60;;;-144.05;29.20;125687.94;4980707;28;20097;-88
2022/08/09 11:21:48;;;;;;;4.53;2.65;;;29.80;66.50;;;-144.05;29.39;125687.94;4963756;28;20038;-90
2022/08/09 11:24:14;;;;;;;3.80;2.20;;;29.50;65.70;;;-144.05;29.32;125687.94;4979948;28;20031;-88
2022/08/09 11:26:41;;;;;;;7.57;2.40;;;29.40;66.80;;;-144.05;29.57;125687.94;4963813;28;20034;-89
2022/08/09 11:29:08;;;;;;;4.70;2.28;;;29.30;67.30;;;-144.05;29.39;125687.94;4963872;28;20038;-90
2022/08/09 11:31:47;;;;;;;6.35;2.28;;;29.40;67.20;;;-144.05;29.66;125687.94;4963531;28;20035;-89
2022/08/09 11:34:41;;;;;;;2.47;1.80;;;29.40;67.90;;;-144.05;30.01;125687.94;4964522;28;20031;-89
2022/08/09 11:37:22;;;;;;;5.05;2.30;;;29.50;67.30;;;-144.05;28.99;125687.94;4965468;28;20034;-89
2022/08/09 11:40:07;;;;;;;4.22;2.35;;;29.60;65.60;;;-144.05;28.99;125687.94;4980647;28;20052;-89
2022/08/09 11:42:47;;;;;;;6.03;2.58;;;29.90;65.70;;;-144.05;29.20;125687.94;4964781;28;20034;-89
2022/08/09 11:45:28;;;;;;;3.63;2.65;;;29.50;64.50;;;-144.05;29.39;125687.94;4981855;28;20510;-90
2022/08/09 11:48:23;;;;;;;3.75;2.65;;;29.40;64.70;;;-144.05;28.85;125687.94;4966483;28;20403;-86
2022/08/09 11:51:02;;;;;;;4.60;2.00;;;29.40;64.70;;;-144.05;28.93;125687.94;4978369;28;20085;-87
2022/08/09 11:53:34;;;;;;;4.97;2.38;;;29.60;64.80;;;-144.05;28.73;125687.94;4994554;28;20031;-85
2022/08/09 11:56:17;;;;;;;6.95;2.17;;;30.00;63.90;;;-144.05;28.44;125687.94;4967778;28;20031;-87
2022/08/09 11:58:56;;;;;;;4.70;2.40;;;30.30;62.90;;;-144.05;28.09;125687.94;4978422;28;20030;-90
2022/08/09 12:01:42;;;;;;;3.97;2.47;;;30.20;62.40;;;-144.05;28.42;125687.94;4962001;28;20031;-89
2022/08/09 12:04:13;;;;;;;3.75;2.00;;;30.00;62.60;;;-144.05;28.78;125687.94;4962161;28;20484;-88
2022/08/09 12:06:57;;;;;;;5.95;2.70;;;29.80;63.10;;;-144.05;28.90;125687.94;4979359;28;20026;-90
2022/08/09 12:09:30;;;;;;;6.10;2.63;;;29.70;62.60;;;-144.05;29.02;125687.94;4962541;28;20030;-88
2022/08/09 12:12:14;;;;;;;4.03;2.33;;;29.90;62.90;;;-144.05;28.56;125687.94;4962224;28;20031;-87
2022/08/09 12:14:41;;;;;;;4.78;2.40;;;30.00;63.00;;;-144.05;27.96;125687.94;4923937;29;20039;-88
2022/08/09 12:17:15;;;;;;;5.85;2.42;;;30.00;60.20;;;-144.05;27.79;125687.94;4923128;29;20555;-87
2022/08/09 12:19:40;;;;;;;5.47;2.28;;;30.00;59.80;;;-144.05;27.89;125687.94;4940029;29;20142;-89
2022/08/09 12:22:07;;;;;;;2.88;1.98;;;30.00;60.00;;;-144.05;27.94;125687.94;4940524;29;20035;-89
2022/08/09 12:24:34;;;;;;;2.95;1.95;;;29.90;59.60;;;-144.05;28.52;125687.94;4922911;29;20028;-86
2022/08/09 12:26:59;;;;;;;3.25;1.77;;;30.10;61.70;;;-144.05;27.71;125687.94;4923062;29;20079;-86
2022/08/09 12:29:30;;;;;;;2.17;1.73;;;30.10;60.50;;;-144.05;28.37;125687.94;4923708;29;20486;-89
2022/08/09 12:32:09;;;;;;;4.53;2.10;;;30.20;61.00;;;-144.05;27.47;125687.94;4922761;29;20024;-88
2022/08/09 12:34:42;;;;;;;4.03;2.30;;;30.50;60.00;;;-144.05;27.49;125687.94;4923191;29;20403;-87
2022/08/09 12:37:10;;;;;;;5.47;2.20;;;30.60;60.00;;;-144.05;28.03;125687.94;4941270;29;20056;-88
2022/08/09 12:39:37;;;;;;;3.70;2.38;;;30.60;60.40;;;-144.05;27.99;125687.94;4924864;29;20119;-88
2022/08/09 12:42:15;;;;;;;5.82;2.38;;;30.30;59.60;;;-144.05;27.91;125687.94;4923911;29;20454;-86
2022/08/09 12:44:42;;;;;;;5.25;2.58;;;30.50;61.10;;;-144.05;28.50;125687.94;4923527;29;20059;-88
2022/08/09 12:47:09;;;;;;;3.53;2.20;;;30.30;61.00;;;-144.05;27.82;125687.94;4924199;29;20063;-87
2022/08/09 12:49:38;;;;;;;3.80;1.95;;;30.30;60.10;;;-144.05;27.64;125687.94;4941224;29;20027;-88
2022/08/09 12:52:05;;;;;;;5.35;2.25;;;30.50;59.10;;;-144.05;28.01;125687.94;4923770;29;20036;-85
2022/08/09 12:54:53;;;;;;;3.00;2.20;;;30.30;60.00;;;-144.05;27.60;125687.94;4925277;29;20035;-86
2022/08/09 12:57:45;;;;;;;4.28;2.20;;;30.40;59.00;;;-144.05;27.67;125687.94;4941995;29;20023;-89
2022/08/09 13:00:31;;;;;;;3.65;2.38;;;30.50;59.00;;;-144.05;27.35;125687.94;4931178;29;20401;-87
2022/08/09 13:03:01;;;;;;;2.50;1.85;;;30.60;58.50;;;-144.05;27.62;125687.94;4938693;29;20031;-87
2022/08/09 13:05:46;;;;;;;3.58;1.88;;;30.20;57.80;;;-144.05;27.88;125687.94;4931941;29;20050;-89
2022/08/09 13:08:27;;;;;;;3.10;2.10;;;30.20;58.70;;;-144.05;27.51;125687.94;4925530;29;20031;-90
2022/08/09 13:11:00;;;;;;;6.47;2.33;;;30.30;58.30;;;-144.05;27.12;125687.94;4925008;29;20040;-89
2022/08/09 13:13:39;;;;;;;4.97;2.47;;;30.60;57.30;;;-144.05;27.20;125687.94;4943207;28;20031;-85
2022/08/09 13:16:11;;;;;;;2.70;2.17;;;30.60;57.00;;;-144.05;27.45;125687.94;4961427;28;20109;-90
2022/08/09 13:18:53;;;;;;;4.85;2.08;;;30.40;57.40;;;-144.05;27.18;125687.94;4962942;28;20069;-88
2022/08/09 13:21:28;;;;;;;6.05;2.10;;;30.10;57.30;;;-144.05;27.67;125687.94;4961726;28;20026;-87
2022/08/09 13:24:13;;;;;;;;;;;30.10;57.90;;;-144.05;27.57;125687.94;4963412;28;20075;-89
2022/08/09 13:26:46;;;;;;;4.32;1.90;;;30.00;58.00;;;-144.05;27.58;125687.94;4964119;28;20384;-88
2022/08/09 13:29:19;;;;;;;4.28;1.88;;;30.30;58.30;;;-144.05;27.08;125687.94;4963320;28;20396;-91
2022/08/09 13:32:00;;;;;;;3.60;1.83;;;30.40;57.70;;;-144.05;26.90;125687.94;4962982;28;20507;-87
2022/08/09 13:34:30;;;;;;;4.70;2.22;;;30.40;56.50;;;-144.05;27.06;125687.94;4979816;28;20125;-90
2022/08/09 13:37:04;;;;;;;3.42;2.03;;;30.50;56.60;;;-144.05;26.85;125687.94;4963350;28;20027;-90
2022/08/09 13:39:31;;;;;;;3.80;2.00;;;30.50;56.40;;;-144.05;27.52;125687.94;4963916;28;20109;-89
2022/08/09 13:42:11;;;;;;;3.67;1.80;;;30.50;58.00;;;-144.05;27.56;125687.94;4976963;28;20038;-89
2022/08/09 13:44:37;;;;;;;3.75;1.77;;;30.50;58.40;;;-144.05;28.17;125687.94;4961824;28;20031;-91
2022/08/09 13:47:09;;;;;;;4.43;2.10;;;30.60;59.40;;;-144.05;27.50;125687.94;4964680;28;20054;-90
2022/08/09 13:49:36;;;;;;;5.43;2.25;;;30.50;57.30;;;-144.05;27.47;125687.94;4991686;28;20022;-90
2022/08/09 13:52:05;;;;;;;6.30;2.13;;;30.30;57.60;;;-144.05;27.43;125687.94;4978519;28;20022;-86
2022/08/09 13:54:31;;;;;;;4.43;2.05;;;30.30;57.10;;;-144.05;27.39;125687.94;4978923;28;20138;-86
2022/08/09 13:56:57;;;;;;;3.17;2.13;;;30.10;57.30;;;-144.05;27.75;125687.94;4968040;28;20503;-88
2022/08/09 13:59:23;;;;;;;3.42;2.05;;;29.90;58.00;;;-144.05;28.12;125687.94;4961698;28;20443;-90
2022/08/09 14:01:51;;;;;;;3.50;1.83;;;29.60;58.30;;;-144.05;28.37;125687.94;4943502;28;20038;-88
2022/08/09 14:04:17;;;;;;;3.92;2.10;;;29.50;59.30;;;-144.05;28.42;125687.94;4977722;28;20027;-91
2022/08/09 14:06:57;;;;;;;3.25;1.67;;;29.60;59.30;;;-144.05;28.66;125687.94;4977438;28;20037;-89
2022/08/09 14:09:25;;;;;;;5.47;1.95;;;29.70;58.90;;;-144.05;28.18;125687.94;4962973;28;20018;-88
2022/08/09 14:11:54;;;;;;;4.07;1.90;;;29.50;58.60;;;-144.05;28.21;125687.94;4961683;28;20050;-88
2022/08/09 14:14:23;;;;;;;2.85;1.88;;;29.50;58.90;;;-144.05;28.45;125687.94;4961999;28;20459;-90
2022/08/09 14:16:49;;;;;;;4.72;1.95;;;29.60;60.20;;;-144.05;28.30;125687.94;4961373;28;20110;-90
2022/08/09 14:19:17;;;;;;;7.63;2.08;;;29.60;58.80;;;-144.05;28.24;125687.94;4960643;28;20089;-89
2022/08/09 14:21:43;;;;;;;6.68;2.13;;;29.50;58.50;;;-144.05;28.33;125687.94;4978073;28;20030;-87
2022/08/09 14:24:16;;;;;;;3.53;1.70;;;29.50;59.20;;;-144.05;27.97;125687.94;4961114;28;20053;-86
2022/08/09 14:26:53;;;;;;;4.15;2.05;;;29.30;58.20;;;-144.05;28.16;125687.94;4961029;28;20035;-89
2022/08/09 14:29:22;;;;;;;2.78;2.03;;;29.30;59.30;;;-144.05;28.54;125687.94;4961888;28;20034;-89
2022/08/09 14:31:48;;;;;;;6.97;2.33;;;29.40;59.70;;;-144.05;28.21;125687.94;4962426;28;20026;-86
2022/08/09 14:34:15;;;;;;;3.58;2.15;;;29.40;59.00;;;-144.05;28.42;125687.94;4962167;28;20122;-87
2022/08/09 14:36:41;;;;;;;4.43;2.22;;;29.40;59.00;;;-144.05;28.30;125687.94;4961920;28;20038;-89
2022/08/09 14:39:07;;;;;;;3.38;2.30;;;29.30;58.30;;;-144.05;28.55;125687.94;4961628;28;20039;-87
2022/08/09 14:41:34;;;;;;;4.47;2.00;;;29.30;59.60;;;-144.05;28.32;125687.94;4961938;28;20485;-87
2022/08/09 14:44:00;;;;;;;5.75;2.22;;;29.20;58.60;;;-144.05;28.26;125687.94;4962573;28;20512;-89
2022/08/09 14:46:26;;;;;;;3.05;2.22;;;29.20;58.70;;;-144.05;29.03;125687.94;4961174;28;20033;-89
2022/08/09 14:48:52;;;;;;;3.85;2.30;;;29.10;59.90;;;-144.05;28.72;125687.94;4962536;28;20027;-90
2022/08/09 14:51:17;;;;;;;5.00;2.30;;;29.00;59.90;;;-144.05;28.94;125687.94;4964925;28;20069;-88
2022/08/09 14:53:43;;;;;;;3.78;1.98;;;28.90;59.70;;;-144.05;28.57;125687.94;4977896;28;20076;-89
2022/08/09 14:56:10;;;;;;;4.28;1.80;;;29.00;59.40;;;-144.05;28.53;125687.94;4960322;28;20035;-89
2022/08/09 14:58:36;;;;;;;5.97;2.05;;;29.10;59.10;;;-144.05;28.21;125687.94;4959495;28;20030;-88
2022/08/09 15:01:09;;;;;;;2.55;1.95;;;29.10;58.60;;;-144.05;28.21;125687.94;4960222;28;20041;-89
2022/08/09 15:03:35;;;;;;;5.75;1.90;;;29.10;58.60;;;-144.05;28.20;125687.94;4959729;28;20126;-90
2022/08/09 15:06:01;;;;;;;3.88;2.10;;;29.00;58.40;;;-144.05;28.23;125687.94;4974788;28;20087;-86
2022/08/09 15:08:27;;;;;;;5.43;1.92;;;28.90;58.30;;;-144.05;28.60;125687.94;4959877;28;20026;-85
2022/08/09 15:10:53;;;;;;;7.22;2.20;;;28.80;58.80;;;-144.05;28.64;125687.94;4959507;28;20047;-90
2022/08/09 15:13:19;;;;;;;2.58;1.52;;;28.80;59.30;;;-144.05;28.94;125687.94;4950229;29;20047;-89
2022/08/09 15:15:45;;;;;;;3.85;2.00;;;28.60;59.10;;;-144.05;29.15;125687.94;4940145;29;20035;-88
2022/08/09 15:18:13;;;;;;;3.08;2.03;;;28.70;60.50;;;-144.05;28.79;125687.94;4940910;29;20042;-85
2022/08/09 15:20:42;;;;;;;3.40;1.60;;;28.70;59.70;;;-144.05;28.67;125687.94;4940482;29;20034;-85
2022/08/09 15:23:09;;;;;;;4.07;2.00;;;28.60;59.20;;;-144.05;29.28;125687.94;4957331;29;20035;-89
2022/08/09 15:25:35;;;;;;;3.08;1.85;;;28.60;59.90;;;-144.05;28.67;125687.94;4940373;29;20090;-90
2022/08/09 15:28:03;;;;;;;3.85;1.80;;;28.50;58.90;;;-144.05;28.75;125687.94;4940036;29;20035;-89
2022/08/09 15:30:30;;;;;;;4.57;2.03;;;28.40;59.00;;;-144.05;28.97;125687.94;4941437;29;20031;-88
2022/08/09 15:32:56;;;;;;;4.15;2.28;;;28.30;59.60;;;-144.05;28.98;125687.94;4941996;29;20031;-91
2022/08/09 15:35:23;;;;;;;2.28;1.38;;;28.20;59.70;;;-144.05;29.05;125687.94;4945095;29;20172;-91
2022/08/09 15:37:51;;;;;;;3.22;1.70;;;28.20;59.70;;;-144.05;29.02;125687.94;4945303;29;20031;-86
2022/08/09 15:40:21;;;;;;;4.18;2.13;;;28.10;59.70;;;-144.05;29.11;125687.94;4944689;29;20039;-86
2022/08/09 15:42:51;;;;;;;4.40;2.13;;;27.90;59.80;;;-144.05;29.34;125687.94;4943675;29;20042;-90
2022/08/09 15:45:19;;;;;;;2.17;1.90;;;27.90;60.90;;;-144.05;29.32;125687.94;4944048;29;20050;-88
2022/08/09 15:47:46;;;;;;;3.38;1.80;;;27.90;60.60;;;-144.05;29.13;125687.94;4944028;29;20571;-89
2022/08/09 15:50:16;;;;;;;3.30;2.00;;;27.80;59.70;;;-144.05;29.29;125687.94;4943220;29;20059;-89
2022/08/09 15:52:45;;;;;;;4.93;1.90;;;27.80;60.50;;;-144.05;29.97;125687.94;4943559;29;20481;-89
2022/08/09 15:55:17;;;;;;;5.00;2.00;;;27.80;61.00;;;-144.05;29.90;125687.94;4961654;29;20114;-90
2022/08/09 15:57:46;;;;;;;4.38;2.05;;;27.80;60.90;;;-144.05;29.47;125687.94;4945504;29;20031;-89
2022/08/09 16:00:21;;;;;;;3.20;2.22;;;27.60;59.90;;;-144.05;29.65;125687.94;4946491;29;20031;-88
2022/08/09 16:02:50;;;;;;;5.65;1.98;;;27.50;60.50;;;-144.05;30.15;125687.94;4961853;29;20044;-90
2022/08/09 16:05:19;;;;;;;5.00;2.10;;;27.50;61.50;;;-144.05;30.02;125687.94;4944807;29;20062;-88
2022/08/09 16:07:46;;;;;;;2.90;1.95;;;27.40;60.90;;;-144.05;30.28;125687.94;4960702;29;20027;-90
2022/08/09 16:10:17;;;;;;;6.38;2.35;;;27.30;61.30;;;-144.05;30.31;125687.94;4942761;29;20035;-89
2022/08/09 16:12:43;;;;;;;4.28;2.00;;;27.20;61.80;;;-144.05;30.44;125687.94;4951553;28;20034;-89
2022/08/09 16:15:11;;;;;;;5.07;1.60;;;27.20;61.70;;;-144.05;30.51;125687.94;4991520;28;20031;-88
2022/08/09 16:17:37;;;;;;;2.55;1.80;;;27.10;62.20;;;-144.05;30.65;125687.94;4972486;28;20454;-92
2022/08/09 16:20:09;;;;;;;2.80;1.73;;;27.00;62.40;;;-144.05;30.69;125687.94;4971450;28;20459;-91
2022/08/09 16:22:41;;;;;;;5.10;1.90;;;26.90;62.60;;;-144.05;30.96;125687.94;4971288;28;20037;-90
2022/08/09 16:25:11;;;;;;;3.90;1.83;;;26.80;63.10;;;-144.05;30.88;125687.94;4971031;28;20133;-87
2022/08/09 16:27:39;;;;;;;3.42;1.70;;;26.80;63.10;;;-144.05;30.91;125687.94;4987311;28;20030;-90
2022/08/09 16:30:09;;;;;;;4.72;1.90;;;26.80;63.20;;;-144.05;31.15;125687.94;4973215;28;20081;-89
2022/08/09 16:35:22;;;;;;;3.92;2.63;;;26.80;63.30;;;-144.05;30.75;125687.94;4990924;28;20038;-89
2022/08/09 16:37:48;;;;;;;3.13;2.58;;;26.70;62.90;;;-144.05;31.01;125687.94;4975891;28;20046;-86
2022/08/09 16:40:18;;;;;;;3.83;2.00;;;26.60;63.40;;;-144.05;31.11;125687.94;4973963;28;20038;-88
2022/08/09 16:42:44;;;;;;;3.72;1.70;;;26.60;63.70;;;-144.05;31.06;125687.94;4969628;28;20050;-89
2022/08/09 16:45:12;;;;;;;6.22;2.00;;;26.60;63.40;;;-144.05;31.36;125687.94;4988162;28;20051;-87
2022/08/09 16:47:38;;;;;;;3.45;1.50;;;26.50;63.80;;;-144.05;31.10;125687.94;4970865;28;20027;-90
2022/08/09 16:50:05;;;;;;;5.10;2.40;;;26.40;63.60;;;-144.05;31.50;125687.94;4987437;28;20027;-92
2022/08/09 16:52:32;;;;;;;3.45;1.65;;;26.30;64.40;;;-144.05;31.33;125687.94;4987374;28;20031;-87
2022/08/09 16:54:57;;;;;;;6.93;2.05;;;26.30;63.80;;;-144.05;31.32;125687.94;4971321;28;20030;-90
2022/08/09 16:57:23;;;;;;;2.17;1.58;;;26.30;64.10;;;-144.05;31.41;125687.94;4972987;28;20057;-91
2022/08/09 16:59:49;;;;;;;6.15;2.20;;;26.30;64.30;;;-144.05;31.34;125687.94;4969622;28;20041;-88
2022/08/09 17:02:15;;;;;;;4.28;2.10;;;26.30;64.00;;;-144.05;31.58;125687.94;4974581;28;20077;-87
2022/08/09 17:04:43;;;;;;;3.05;1.90;;;26.20;64.40;;;-144.05;31.46;125687.94;4971116;28;20053;-88
2022/08/09 17:07:09;;;;;;;1.92;1.73;;;26.20;64.50;;;-144.05;31.84;125687.94;4974060;28;20015;-88
2022/08/09 17:09:35;;;;;;;3.90;1.85;;;26.10;65.10;;;-144.05;31.76;125687.94;4972655;28;20058;-89
2022/08/09 17:12:01;;;;;;;3.03;1.88;;;26.10;65.10;;;-144.05;31.80;125687.94;4987846;28;20026;-89
2022/08/09 17:14:27;;;;;;;2.22;1.58;;;26.00;64.60;;;-144.05;31.86;125687.94;4954126;29;20082;-89
2022/08/09 17:16:58;;;;;;;3.95;1.60;;;26.00;64.80;;;-144.05;31.96;125687.94;4954374;29;20038;-91
2022/08/09 17:19:24;;;;;;;5.82;2.28;;;25.90;65.30;;;-144.05;31.64;125687.94;4951626;29;20038;-87
2022/08/09 17:21:49;;;;;;;2.72;1.70;;;25.90;65.00;;;-144.05;31.91;125687.94;4951940;29;20473;-88
2022/08/09 17:24:15;;;;;;;4.50;2.10;;;25.90;65.00;;;-144.05;31.95;125687.94;4954022;29;20035;-87
2022/08/09 17:26:41;;;;;;;2.70;2.08;;;25.80;65.60;;;-144.05;32.04;125687.94;4953022;29;20110;-91
2022/08/09 17:29:07;;;;;;;3.35;1.90;;;25.80;65.40;;;-144.05;32.11;125687.94;4950043;29;20023;-89
2022/08/09 17:31:33;;;;;;;2.90;1.85;;;25.80;65.60;;;-144.05;32.37;125687.94;4953801;29;20034;-89
2022/08/09 17:33:59;;;;;;;3.95;1.90;;;25.70;66.00;;;-144.05;32.31;125687.94;4953730;29;20046;-91
2022/08/09 17:36:25;;;;;;;2.92;1.80;;;25.70;66.10;;;-144.05;32.43;125687.94;4972794;29;20050;-90
2022/08/09 17:38:50;;;;;;;3.95;1.70;;;25.70;67.10;;;-144.05;32.43;125687.94;4972605;29;20039;-89
2022/08/09 17:41:16;;;;;;;3.38;1.70;;;25.60;66.50;;;-144.05;32.42;125687.94;4956888;29;20038;-88
2022/08/09 17:43:42;;;;;;;4.60;1.67;;;25.60;66.40;;;-144.05;32.44;125687.94;4956687;29;20045;-90
2022/08/09 17:46:08;;;;;;;3.00;1.52;;;25.50;66.90;;;-144.05;32.64;125687.94;4957430;29;20050;-87
2022/08/09 17:48:39;;;;;;;6.75;1.73;;;25.50;67.00;;;-144.05;32.45;125687.94;4954901;29;20489;-89
2022/08/09 17:51:09;;;;;;;3.35;2.05;;;25.40;66.30;;;-144.05;32.70;125687.94;4956703;29;20031;-89
2022/08/09 17:53:35;;;;;;;4.38;2.33;;;25.40;67.00;;;-144.05;32.64;125687.94;4956268;29;20058;-88
2022/08/09 17:56:00;;;;;;;4.90;2.05;;;25.30;67.10;;;-144.05;32.67;125687.94;4956963;29;20050;-87
2022/08/09 17:58:26;;;;;;;7.47;2.42;;;25.30;66.80;;;-144.05;32.85;125687.94;4973469;28;20031;-88
2022/08/09 18:00:53;;;;;;;4.45;2.47;;;25.30;67.10;;;-144.05;32.89;125687.94;4957908;29;20532;-91
2022/08/09 18:03:19;;;;;;;5.97;2.25;;;25.30;67.40;;;-144.05;32.86;125687.94;4957601;29;20031;-89
2022/08/09 18:05:45;;;;;;;3.10;2.28;;;25.20;67.40;;;-144.05;32.85;125687.94;4956461;28;20046;-88
2022/08/09 18:08:11;;;;;;;3.95;2.30;;;25.20;67.50;;;-144.05;33.07;125687.94;4954827;29;20027;-88
2022/08/09 18:10:38;;;;;;;5.60;2.58;;;25.10;67.50;;;-144.05;33.26;125687.94;4955369;29;20034;-88
2022/08/09 18:13:04;;;;;;;6.07;2.15;;;25.00;68.20;;;-144.05;33.25;125687.94;4964151;28;20041;-89
2022/08/09 18:15:30;;;;;;;2.60;2.08;;;25.00;68.70;;;-144.05;33.47;125687.94;4991804;28;20039;-91
2022/08/09 18:17:56;;;;;;;4.75;1.92;;;24.90;68.50;;;-144.05;33.46;125687.94;4976262;28;20034;-86
2022/08/09 18:20:23;;;;;;;2.55;1.92;;;24.90;68.40;;;-144.05;33.26;125687.94;4978448;28;20035;-88
2022/08/09 18:22:49;;;;;;;3.05;1.77;;;24.90;68.50;;;-144.05;33.24;125687.94;4975412;28;20027;-86
2022/08/09 18:25:15;;;;;;;3.40;1.80;;;24.90;68.20;;;-144.05;33.55;125687.94;4994650;28;20049;-86
2022/08/09 18:27:41;;;;;;;4.40;1.88;;;24.80;68.60;;;-144.05;33.39;125687.94;4976848;28;20110;-86
2022/08/09 18:30:07;;;;;;;6.38;1.63;;;24.80;68.20;;;-144.05;33.30;125687.94;4975254;28;20034;-92
2022/08/09 18:32:34;;;;;;;2.78;1.63;;;24.70;68.20;;;-144.05;33.39;125687.94;4976011;28;20113;-86
2022/08/09 18:35:00;;;;;;;6.07;2.08;;;24.70;68.50;;;-144.05;33.54;125687.94;4975970;28;20037;-88
2022/08/09 18:37:26;;;;;;;5.32;1.77;;;24.60;68.70;;;-144.05;33.48;125687.94;4976689;28;20038;-86
2022/08/09 18:39:52;;;;;;;3.47;1.65;;;24.50;69.20;;;-144.05;33.77;125687.94;4976706;28;20027;-86
2022/08/09 18:42:18;;;;;;;4.03;1.63;;;24.40;69.30;;;-144.05;33.87;125687.94;4977108;28;20015;-87
2022/08/09 18:44:44;;;;;;;3.38;2.05;;;24.30;70.00;;;-144.05;33.84;125687.94;4993137;28;20046;-87
2022/08/09 18:47:10;;;;;;;3.55;1.67;;;24.20;69.60;;;-144.05;33.87;125687.94;4976344;28;20027;-84
2022/08/09 18:49:41;;;;;;;5.85;1.90;;;24.20;69.70;;;-144.05;33.97;125687.94;4995199;28;20106;-84
2022/08/09 18:52:07;;;;;;;3.15;1.85;;;24.10;69.90;;;-144.05;33.95;125687.94;4980495;28;20028;-85
2022/08/09 18:54:33;;;;;;;3.88;1.70;;;24.10;70.20;;;-144.05;34.17;125687.94;4980857;28;20023;-85
2022/08/09 18:57:02;;;;;;;2.90;1.80;;;24.00;70.60;;;-144.05;34.31;125687.94;4976740;28;20050;-89
2022/08/09 18:59:28;;;;;;;2.58;1.77;;;23.90;71.10;;;-144.05;34.43;125687.94;4977205;28;20022;-85
2022/08/09 19:01:54;;;;;;;5.68;1.83;;;23.80;71.10;;;-144.05;34.36;125687.94;4994223;28;20030;-86
2022/08/09 19:04:24;;;;;;;3.50;1.65;;;23.70;70.90;;;-144.05;34.52;125687.94;4977740;28;20057;-87
2022/08/09 19:06:50;;;;;;;2.92;1.70;;;23.70;71.30;;;-144.05;34.45;125687.94;4976550;28;20055;-89
2022/08/09 19:09:16;;;;;;;3.63;1.60;;;23.60;71.50;;;-144.05;34.98;125687.94;4992272;28;20034;-87
2022/08/09 19:11:45;;;;;;;1.77;1.30;;;23.50;72.10;;;-144.05;35.02;125687.94;4979482;28;20507;-88
2022/08/09 19:14:11;;;;;;;2.35;1.38;;;23.30;72.70;;;-144.05;35.31;125687.94;4963310;29;20030;-88
2022/08/09 19:16:38;;;;;;;2.08;1.50;;;23.20;73.00;;;-144.05;35.12;125687.94;4958536;29;20027;-87
2022/08/09 19:19:05;;;;;;;3.90;2.10;;;23.10;73.00;;;-144.05;35.31;125687.94;4960456;29;20039;-90
2022/08/09 19:21:31;;;;;;;4.55;1.75;;;23.10;73.10;;;-144.05;35.21;125687.94;4960859;29;20089;-86
2022/08/09 19:23:57;;;;;;;2.40;1.67;;;23.00;73.20;;;-144.05;35.47;125687.94;4960738;29;20031;-85
2022/08/09 19:26:23;;;;;;;7.20;1.80;;;22.90;73.50;;;-144.05;35.61;125687.94;4961730;29;20050;-88
2022/08/09 19:28:49;;;;;;;2.35;1.40;;;22.80;73.90;;;-144.05;35.75;125687.94;4978558;29;20070;-86
2022/08/09 19:31:18;;;;;;;4.45;1.88;;;22.70;74.10;;;-144.05;35.77;125687.94;4947064;29;20043;-88
2022/08/09 19:33:44;;;;;;;5.97;1.65;;;22.60;74.40;;;-144.05;35.90;125687.94;4944352;29;20039;-86
2022/08/09 19:36:10;;;;;;;5.95;2.00;;;22.50;74.90;;;-144.05;36.35;125687.94;4944889;29;20089;-88
2022/08/09 19:38:36;;;;;;;4.40;1.55;;;22.40;75.60;;;-144.05;36.11;125687.94;4944024;29;20039;-89
2022/08/09 19:41:04;;;;;;;3.78;2.20;;;22.40;75.30;;;-144.05;36.30;125687.94;4944173;29;20027;-89
2022/08/09 19:43:30;;;;;;;3.72;1.98;;;22.40;75.80;;;-144.05;36.42;125687.94;4948839;29;20038;-88
2022/08/09 19:45:57;;;;;;;4.18;1.92;;;22.30;76.10;;;-144.05;36.41;125687.94;4949067;29;20031;-88
2022/08/09 19:48:23;;;;;;;5.40;2.08;;;22.30;76.10;;;-144.05;36.33;125687.94;4946799;29;20027;-89
2022/08/09 19:50:50;;;;;;;4.70;2.20;;;22.30;76.10;;;-144.05;36.66;125687.94;4948284;29;20031;-88
2022/08/09 19:53:16;;;;;;;3.97;2.00;;;22.20;76.50;;;-144.05;36.52;125687.94;4948186;29;20035;-88
2022/08/09 19:56:06;;;;;;;4.68;1.75;;;22.20;76.70;;;-144.05;36.69;125687.94;4950082;29;20090;-88
2022/08/09 19:58:33;;;;;;;3.83;1.95;;;22.10;77.10;;;-144.05;38.00;125687.94;4954596;29;20031;-88
2022/08/09 20:01:03;;;;;;;2.67;1.83;;;22.00;79.60;;;-144.05;37.35;125687.94;4951508;29;20035;-88
2022/08/09 20:03:29;;;;;;;2.95;1.55;;;21.90;78.30;;;-144.05;37.64;125687.94;4949975;29;20118;-88
2022/08/09 20:05:57;;;;;;;4.55;1.80;;;21.80;79.10;;;-144.05;37.79;125687.94;4949193;29;20074;-88
2022/08/09 20:08:23;;;;;;;6.00;1.73;;;21.70;79.40;;;-144.05;37.90;125687.94;4969850;29;20027;-88
2022/08/09 20:10:50;;;;;;;2.50;1.80;;;21.60;79.90;;;-144.05;38.10;125687.94;4955957;29;20038;-88
2022/08/09 20:13:16;;;;;;;7.07;2.03;;;21.60;80.50;;;-144.05;38.25;125687.94;4963687;28;20030;-86
2022/08/09 20:15:42;;;;;;;3.92;2.03;;;21.50;81.10;;;-144.05;38.21;125687.94;4977872;28;20061;-86
2022/08/09 20:18:11;;;;;;;4.00;1.70;;;21.40;81.10;;;-144.05;38.65;125687.94;4961717;28;20049;-88
2022/08/09 20:20:37;;;;;;;3.00;2.40;;;21.30;82.50;;;-144.05;38.56;125687.94;4978445;28;20069;-88
2022/08/09 20:23:04;;;;;;;4.22;2.55;;;21.20;82.10;;;-144.05;38.56;125687.94;4975190;28;20433;-89
2022/08/09 20:25:30;;;;;;;7.25;2.75;;;21.20;82.20;;;-144.05;38.53;125687.94;4968962;28;20089;-88
2022/08/09 20:27:58;;;;;;;8.07;2.53;;;21.10;82.70;;;-144.05;38.88;125687.94;4971184;28;20023;-87
2022/08/09 20:30:24;;;;;;;6.00;2.63;;;21.00;83.40;;;-144.05;39.08;125687.94;4969603;28;20047;-86